Estación de Nueva Imperial

Ultimos registro cada 15 minutos 47
Estación Fecha / Hora Temperatura Humedad Lluvia Velocidad Dirección Radiación Presion
47 Nueva Imperial 02-05-2026 11:30 15,1 69,5 0,2 0,3 17 528,1 1012,9
46 Nueva Imperial 02-05-2026 11:15 14,7 70,1 0,4 0,3 289 468,1 1013,3
45 Nueva Imperial 02-05-2026 11:00 14 73,5 0,2 0,3 185 481,9 1013,3
44 Nueva Imperial 02-05-2026 10:45 11,5 77,4 0,4 0,7 91 460,6 1013,3
43 Nueva Imperial 02-05-2026 10:30 10,6 84,1 0,2 0,7 94 431,9 1013,6
42 Nueva Imperial 02-05-2026 10:15 8,9 88,2 0,4 0,3 77 353,1 1013,8
41 Nueva Imperial 02-05-2026 10:00 8,1 93,7 0,4 0,3 74 41,9 1013,9
40 Nueva Imperial 02-05-2026 09:45 7,5 96,6 0,4 0,3 95 154,4 1014,2
39 Nueva Imperial 02-05-2026 09:30 7,2 97,9 0,4 0 227 188,1 1014
38 Nueva Imperial 02-05-2026 09:15 5,8 98,4 0,4 0 253 263,1 1013,9
37 Nueva Imperial 02-05-2026 09:00 3 98,3 0 0 253 208,1 1014
36 Nueva Imperial 02-05-2026 08:45 1,5 98,6 0 0 260 171,9 1014,3
35 Nueva Imperial 02-05-2026 08:30 0,3 98,6 0 0,3 258 128,1 1014,2
34 Nueva Imperial 02-05-2026 08:15 0,2 98,6 0,2 0 251 101,9 1014,2
33 Nueva Imperial 02-05-2026 08:00 -0,5 98,7 0 0 251 66,9 1014,4
32 Nueva Imperial 02-05-2026 07:45 -1,2 98,8 0 0 251 28,1 1014,3
31 Nueva Imperial 02-05-2026 07:30 -1,8 98,7 0 0 208 5,6 1014,4
30 Nueva Imperial 02-05-2026 07:15 -1,8 98,6 0 0 240 0,6 1014,2
29 Nueva Imperial 02-05-2026 07:00 -1,4 98,8 0 0 218 0,6 1014,6
28 Nueva Imperial 02-05-2026 06:45 -1,7 98,6 0 0 149 0,6 1014,4
27 Nueva Imperial 02-05-2026 06:30 -1,3 98,6 0 0 107 0,6 1014,6
26 Nueva Imperial 02-05-2026 06:15 -1,5 98,6 0 0 79 0,6 1014,7
25 Nueva Imperial 02-05-2026 06:00 -1,6 98,5 0 0 79 0,6 1015
24 Nueva Imperial 02-05-2026 05:45 -1,4 98,4 0 0 79 0,6 1015
23 Nueva Imperial 02-05-2026 05:30 -0,9 98,5 0 0 79 0,6 1015,2
22 Nueva Imperial 02-05-2026 05:15 -1 98,4 0 0 79 0,6 1015,4
21 Nueva Imperial 02-05-2026 05:00 -0,9 98,4 0 0 79 0,6 1015,5
20 Nueva Imperial 02-05-2026 04:45 -0,6 98,3 0 0 79 0,6 1015,7
19 Nueva Imperial 02-05-2026 04:30 -0,5 98,3 0 0 79 0,6 1015,8
18 Nueva Imperial 02-05-2026 04:15 -0,7 98,1 0 0 79 0,6 1016
17 Nueva Imperial 02-05-2026 04:00 -0,3 98,3 0 0 79 0,6 1016,3
16 Nueva Imperial 02-05-2026 03:45 -0,2 98,2 0 0 79 0,6 1016,4
15 Nueva Imperial 02-05-2026 03:30 -0,4 97,9 0 0 79 0,6 1016,6
14 Nueva Imperial 02-05-2026 03:15 0,1 97,9 0 0 79 0,6 1017
13 Nueva Imperial 02-05-2026 03:00 0,7 98 0 0 79 0,6 1017,1
12 Nueva Imperial 02-05-2026 02:45 0,2 97,8 0 0 79 0,6 1017,6
11 Nueva Imperial 02-05-2026 02:30 0,5 97,8 0 0 79 0,6 1017,8
10 Nueva Imperial 02-05-2026 02:15 0,6 97,5 0 0 79 0,6 1017,9
9 Nueva Imperial 02-05-2026 02:00 1,2 97,8 0 0 79 0,6 1018,1
8 Nueva Imperial 02-05-2026 01:45 1,1 97,6 0 0 79 0,6 1018,3
7 Nueva Imperial 02-05-2026 01:30 1,7 97,7 0 0 79 0,6 1018,4
6 Nueva Imperial 02-05-2026 01:15 1,3 97,4 0 0 79 0,6 1018,5
5 Nueva Imperial 02-05-2026 01:00 1,3 97,2 0 0 79 0,6 1018,7
4 Nueva Imperial 02-05-2026 00:45 1,6 97,3 0 0 79 0,6 1018,9
3 Nueva Imperial 02-05-2026 00:30 1,2 97,1 0 0 79 0,6 1018,9
2 Nueva Imperial 02-05-2026 00:15 1,8 97 0 0 79 0,6 1019,1
1 Nueva Imperial 02-05-2026 00:00 1,9 97 0 0 79 0,6 1019,1